Smithfield - 24 Hour Table
Date & TimeSolar
Radiation
(W/m²)
Wind
Speed
(mph)
Wind
Direction
(degrees)
Air
Temperature
(°F)
Relative
Humidity
(%)
Precipitation
(inches)
2017/08/20 17:00 459 2.9 123 88.6 18 0.00
2017/08/20 16:00 621 3.6 169 88.4 16 0.00
2017/08/20 15:00 672 3.7 185 87.1 14 0.00
2017/08/20 14:00 815 3.0 202 86.3 19 0.00
2017/08/20 13:00 843 3.1 194 82.4 19 0.00
2017/08/20 12:00 740 3.1 223 79.0 22 0.00
2017/08/20 11:00 730 2.8 213 76.0 23 0.00
2017/08/20 10:00 609 3.1 308 71.7 27 0.00
2017/08/20 09:00 434 2.2 282 68.3 32 0.00
2017/08/20 08:00 258 1.5 0 63.0 37 0.00
2017/08/20 07:00 62 3.1 51 57.5 51 0.00
2017/08/20 06:00 3 3.4 58 58.8 50 0.00
2017/08/20 05:00 0 3.2 86 59.0 43 0.00
2017/08/20 04:00 0 3.1 61 59.1 45 0.00
2017/08/20 03:00 0 3.8 69 63.2 48 0.00
2017/08/20 02:00 0 4.8 51 63.7 30 0.00
2017/08/20 01:00 0 3.0 33 64.2 42 0.00
2017/08/20 00:00 0 3.4 49 64.7 43 0.00
2017/08/19 23:00 0 3.7 43 70.4 30 0.00
2017/08/19 22:00 0 4.8 28 73.1 19 0.00
2017/08/19 21:00 0 5.8 46 72.6 22 0.00
2017/08/19 20:00 5 4.8 81 77.5 22 0.00
2017/08/19 19:00 79 4.3 154 84.5 18 0.00
2017/08/19 18:00 288 5.4 179 86.5 17 0.00